createdAt,value
2018-03-22T00:00:50.326Z,13.83
2018-03-22T00:03:24.635Z,12.17
2018-03-22T00:05:55.127Z,12.13
2018-03-22T00:08:25.804Z,19.50
2018-03-22T00:10:56.529Z,16.57
2018-03-22T00:13:26.685Z,17.48
2018-03-22T00:15:59.628Z,13.67
2018-03-22T00:18:30.821Z,14.70
2018-03-22T00:21:00.998Z,11.80
2018-03-22T00:23:33.347Z,12.93
2018-03-22T00:26:06.988Z,13.13
2018-03-22T00:28:38.388Z,16.63
2018-03-22T00:31:10.531Z,10.87
2018-03-22T00:33:41.718Z,14.50
2018-03-22T00:36:14.804Z,13.97
2018-03-22T00:38:45.723Z,13.53
2018-03-22T00:41:15.966Z,15.17
2018-03-22T00:43:47.091Z,11.43
2018-03-22T00:46:19.206Z,13.03
2018-03-22T00:48:50.022Z,11.13
2018-03-22T00:51:21.572Z,14.27
2018-03-22T00:53:52.026Z,12.67
2018-03-22T00:56:23.265Z,13.87
2018-03-22T00:58:54.642Z,13.25
2018-03-22T01:01:26.656Z,10.70
2018-03-22T01:03:57.780Z,9.57
2018-03-22T01:06:30.861Z,8.45
2018-03-22T01:09:02.174Z,10.33
2018-03-22T01:11:32.827Z,10.43
2018-03-22T01:14:07.575Z,11.10
2018-03-22T01:16:40.372Z,11.73
2018-03-22T01:19:11.863Z,9.63
2018-03-22T01:21:43.399Z,13.52
2018-03-22T01:24:16.214Z,10.43
2018-03-22T01:26:47.313Z,11.83
2018-03-22T01:29:19.029Z,14.02
2018-03-22T01:31:48.642Z,14.93
2018-03-22T01:34:18.655Z,12.57
2018-03-22T01:36:50.111Z,14.26
2018-03-22T01:39:20.785Z,12.07
2018-03-22T01:41:51.801Z,12.30
2018-03-22T01:44:21.435Z,9.77
2018-03-22T01:46:53.531Z,12.10
2018-03-22T01:49:24.562Z,10.50
2018-03-22T01:51:55.803Z,10.23
2018-03-22T01:54:29.297Z,13.03
2018-03-22T01:56:59.646Z,12.20
2018-03-22T01:59:29.736Z,10.57
2018-03-22T02:02:00.550Z,11.77
2018-03-22T02:04:32.622Z,13.23
2018-03-22T02:07:02.782Z,10.77
2018-03-22T02:09:32.747Z,13.13
2018-03-22T02:12:05.603Z,10.87
2018-03-22T02:14:36.413Z,14.20
2018-03-22T02:17:08.400Z,11.97
2018-03-22T02:19:39.534Z,13.43
2018-03-22T02:22:10.057Z,11.87
2018-03-22T02:24:40.877Z,10.77
2018-03-22T02:27:11.344Z,14.80
2018-03-22T02:29:44.125Z,13.43
2018-03-22T02:32:14.428Z,13.27
2018-03-22T02:34:44.414Z,11.90
2018-03-22T02:37:14.386Z,9.97
2018-03-22T02:39:48.086Z,11.90
2018-03-22T02:42:20.467Z,9.30
2018-03-22T02:44:51.428Z,10.93
2018-03-22T02:47:22.855Z,9.97
2018-03-22T02:49:55.564Z,11.13
2018-03-22T02:52:25.885Z,11.40
2018-03-22T02:54:57.306Z,9.57
2018-03-22T02:57:29.921Z,9.70
2018-03-22T03:00:01.157Z,12.30
2018-03-22T03:02:33.142Z,11.23
2018-03-22T03:05:04.044Z,14.37
2018-03-22T03:07:34.871Z,8.85
2018-03-22T03:10:05.690Z,8.80
2018-03-22T03:12:36.645Z,10.33
2018-03-22T03:15:06.463Z,8.87
2018-03-22T03:17:36.846Z,12.53
2018-03-22T03:20:07.946Z,16.80
2018-03-22T03:22:39.635Z,21.13
2018-03-22T03:25:10.618Z,12.43
2018-03-22T03:27:41.566Z,11.80
2018-03-22T03:30:13.003Z,11.33
2018-03-22T03:32:44.718Z,13.80
2018-03-22T03:35:14.829Z,12.97
2018-03-22T03:37:44.806Z,11.00
2018-03-22T03:40:14.897Z,11.17
2018-03-22T03:42:46.577Z,11.80
2018-03-22T03:45:16.792Z,9.93
2018-03-22T03:47:48.559Z,16.07
2018-03-22T03:50:20.462Z,10.35
2018-03-22T03:52:55.758Z,12.90
2018-03-22T03:55:25.738Z,11.53
2018-03-22T03:57:57.310Z,12.43
2018-03-22T04:00:27.446Z,13.43
2018-03-22T04:02:58.237Z,11.30
2018-03-22T04:05:29.224Z,13.07
2018-03-22T04:08:01.458Z,12.97
2018-03-22T04:10:31.742Z,11.97
2018-03-22T04:13:03.987Z,14.47
2018-03-22T04:15:34.389Z,13.83
2018-03-22T04:18:05.241Z,13.30
2018-03-22T04:20:35.096Z,10.67
2018-03-22T04:23:05.877Z,15.13
2018-03-22T04:25:36.341Z,10.00
2018-03-22T04:28:06.278Z,9.43
2018-03-22T04:30:36.232Z,10.03
2018-03-22T04:33:07.149Z,11.30
2018-03-22T04:35:37.229Z,12.50
2018-03-22T04:38:07.282Z,10.50
2018-03-22T04:40:40.397Z,9.77
2018-03-22T04:43:11.367Z,15.50
2018-03-22T04:45:43.544Z,10.60
2018-03-22T04:48:15.322Z,15.27
2018-03-22T04:50:46.943Z,13.33
2018-03-22T04:53:21.231Z,12.30
2018-03-22T04:55:52.483Z,14.23
2018-03-22T04:58:22.686Z,13.67
2018-03-22T05:00:53.568Z,13.60
2018-03-22T05:03:23.879Z,11.23
2018-03-22T05:05:54.176Z,9.90
2018-03-22T05:08:24.262Z,10.27
2018-03-22T05:10:56.183Z,12.70
2018-03-22T05:13:29.357Z,12.67
2018-03-22T05:16:00.683Z,14.18
2018-03-22T05:18:30.889Z,16.23
2018-03-22T05:21:06.064Z,10.07
2018-03-22T05:23:38.117Z,13.47
2018-03-22T05:26:08.822Z,10.05
2018-03-22T05:28:38.939Z,15.13
2018-03-22T05:31:10.757Z,13.53
2018-03-22T05:33:40.544Z,11.97
2018-03-22T05:36:17.811Z,11.20
2018-03-22T05:38:51.380Z,13.43
2018-03-22T05:41:22.541Z,15.63
2018-03-22T05:43:53.190Z,16.65
2018-03-22T05:46:23.218Z,14.67
2018-03-22T05:48:55.577Z,15.17
2018-03-22T05:51:27.870Z,12.37
2018-03-22T05:53:58.467Z,14.17
2018-03-22T05:56:29.590Z,11.70
2018-03-22T05:59:02.633Z,10.63
2018-03-22T06:01:34.975Z,11.40
2018-03-22T06:04:05.774Z,12.20
2018-03-22T06:06:38.652Z,9.17
2018-03-22T06:09:08.809Z,13.37
2018-03-22T06:11:39.549Z,8.77
2018-03-22T06:14:12.419Z,9.60
2018-03-22T06:16:43.406Z,11.96
2018-03-22T06:19:15.460Z,13.10
2018-03-22T06:21:46.086Z,16.37
2018-03-22T06:24:15.934Z,11.90
2018-03-22T06:26:49.932Z,11.40
2018-03-22T06:29:21.808Z,10.00
2018-03-22T06:31:53.247Z,11.25
2018-03-22T06:34:24.218Z,10.43
2018-03-22T06:36:55.291Z,11.73
2018-03-22T06:39:27.202Z,12.37
2018-03-22T06:41:58.539Z,13.33
2018-03-22T06:44:29.583Z,14.10
2018-03-22T06:47:02.430Z,11.80
2018-03-22T06:49:33.491Z,12.20
2018-03-22T06:52:04.036Z,14.00
2018-03-22T06:54:35.244Z,12.40
2018-03-22T06:57:06.851Z,17.53
2018-03-22T06:59:36.982Z,14.57
2018-03-22T07:02:21.623Z,8.90
2018-03-22T07:04:53.707Z,17.80
2018-03-22T07:07:24.607Z,13.43
2018-03-22T07:09:59.243Z,12.80
2018-03-22T07:12:30.454Z,13.00
2018-03-22T07:15:02.296Z,11.93
2018-03-22T07:17:33.609Z,14.27
2018-03-22T07:20:05.048Z,14.50
2018-03-22T07:22:35.467Z,11.80
2018-03-22T07:25:05.743Z,16.77
2018-03-22T07:27:37.003Z,26.53
2018-03-22T07:30:08.877Z,11.90
2018-03-22T07:32:38.581Z,12.83
2018-03-22T07:35:09.423Z,12.50
2018-03-22T07:37:39.380Z,11.20
2018-03-22T07:40:09.737Z,13.37
2018-03-22T07:42:39.999Z,13.33
2018-03-22T07:45:10.749Z,11.60
2018-03-22T07:47:42.528Z,11.45
2018-03-22T07:50:13.511Z,12.47
2018-03-22T07:52:44.334Z,18.97
2018-03-22T07:55:16.613Z,11.30
2018-03-22T07:57:46.797Z,13.90
2018-03-22T08:00:18.796Z,9.23
2018-03-22T08:02:49.409Z,10.23
2018-03-22T08:05:21.245Z,12.13
2018-03-22T08:07:52.582Z,12.77
2018-03-22T08:10:24.971Z,8.77
2018-03-22T08:12:58.866Z,7.83
2018-03-22T08:15:28.830Z,10.40
2018-03-22T08:17:59.765Z,7.87
2018-03-22T08:20:30.592Z,8.77
2018-03-22T08:23:01.682Z,9.83
2018-03-22T08:25:33.092Z,11.40
2018-03-22T08:28:05.912Z,9.87
2018-03-22T08:30:36.829Z,9.20
2018-03-22T08:33:10.415Z,8.60
2018-03-22T08:35:46.933Z,9.57
2018-03-22T08:38:20.497Z,14.07
2018-03-22T08:40:52.319Z,9.27
2018-03-22T08:43:23.592Z,9.10
2018-03-22T08:45:53.639Z,8.02
2018-03-22T08:48:29.146Z,8.53
2018-03-22T08:51:01.716Z,10.03
2018-03-22T08:53:31.811Z,12.83
2018-03-22T08:56:02.937Z,10.47
2018-03-22T08:58:36.243Z,10.57
2018-03-22T09:01:06.938Z,11.17
2018-03-22T09:03:37.935Z,11.10
2018-03-22T09:06:09.322Z,9.33
2018-03-22T09:08:39.771Z,12.90
2018-03-22T09:11:09.792Z,12.37
2018-03-22T09:13:41.805Z,10.60
2018-03-22T09:16:12.849Z,10.30
2018-03-22T09:18:46.688Z,11.67
2018-03-22T09:21:19.893Z,9.20
2018-03-22T09:23:50.319Z,11.30
2018-03-22T09:26:20.495Z,10.77
2018-03-22T09:28:50.814Z,13.30
2018-03-22T09:31:22.238Z,11.20
2018-03-22T09:33:52.341Z,11.30
2018-03-22T09:36:26.568Z,13.13
2018-03-22T09:38:56.864Z,15.70
2018-03-22T09:41:27.496Z,9.87
2018-03-22T09:44:00.445Z,16.87
2018-03-22T09:46:30.630Z,5.63
2018-03-22T09:49:00.868Z,13.23
2018-03-22T09:51:31.150Z,14.87
2018-03-22T09:54:02.709Z,10.90
2018-03-22T09:56:33.235Z,11.47
2018-03-22T09:59:08.330Z,11.20
2018-03-22T10:01:39.641Z,10.25
2018-03-22T10:04:13.467Z,8.73
2018-03-22T10:12:30.713Z,10.43
2018-03-22T10:15:01.603Z,11.20
2018-03-22T10:17:34.668Z,9.93
2018-03-22T10:20:04.909Z,8.57
2018-03-22T10:25:49.585Z,12.07
2018-03-22T10:28:20.700Z,15.10
2018-03-22T10:30:51.341Z,11.00
2018-03-22T10:33:23.142Z,14.40
2018-03-22T10:35:54.307Z,12.63
2018-03-22T10:38:24.835Z,13.40
2018-03-22T10:40:54.881Z,11.10
2018-03-22T10:43:24.730Z,13.20
2018-03-22T10:45:55.637Z,11.50
2018-03-22T10:48:26.001Z,11.37
2018-03-22T10:50:56.770Z,9.37
2018-03-22T10:53:29.547Z,13.80
2018-03-22T10:56:00.484Z,11.33
2018-03-22T10:58:31.710Z,12.40
2018-03-22T11:01:08.460Z,10.80
2018-03-22T11:03:44.222Z,12.57
2018-03-22T11:06:14.520Z,12.13
2018-03-22T11:08:46.975Z,11.57
2018-03-22T11:11:18.230Z,10.13
2018-03-22T11:13:50.065Z,15.42
2018-03-22T11:16:22.269Z,13.83
2018-03-22T11:18:55.226Z,12.57
2018-03-22T11:21:26.162Z,12.40
2018-03-22T11:24:16.492Z,10.27
2018-03-22T11:26:49.816Z,12.83
2018-03-22T11:29:24.705Z,13.10
2018-03-22T11:32:18.893Z,14.43
2018-03-22T11:34:49.307Z,14.10
2018-03-22T11:40:29.796Z,11.65
2018-03-22T11:42:59.717Z,10.13
2018-03-22T11:45:30.937Z,11.53
2018-03-22T11:48:01.722Z,9.87
2018-03-22T11:50:31.933Z,12.67
2018-03-22T11:53:02.576Z,14.33
2018-03-22T11:55:33.524Z,14.03
2018-03-22T11:58:04.652Z,11.00
2018-03-22T12:00:38.887Z,14.07
2018-03-22T12:03:09.810Z,9.80
2018-03-22T12:05:40.546Z,13.52
2018-03-22T12:08:13.615Z,12.83
2018-03-22T12:10:43.660Z,11.50
2018-03-22T12:13:15.344Z,11.70
2018-03-22T12:15:46.426Z,11.90
2018-03-22T12:18:16.070Z,11.47
2018-03-22T12:20:47.013Z,9.90
2018-03-22T12:23:18.463Z,10.90
2018-03-22T12:25:50.165Z,9.93
2018-03-22T12:28:20.179Z,14.13
2018-03-22T12:30:51.438Z,11.57
2018-03-22T12:33:21.860Z,10.15
2018-03-22T12:35:52.059Z,9.87
2018-03-22T12:38:22.146Z,14.55
2018-03-22T12:40:53.040Z,14.93
2018-03-22T12:43:23.844Z,9.90
2018-03-22T12:45:54.983Z,11.27
2018-03-22T12:48:25.726Z,11.83
2018-03-22T12:50:57.483Z,11.43
2018-03-22T12:53:27.273Z,14.60
2018-03-22T12:55:57.415Z,12.00
2018-03-22T12:58:27.555Z,12.83
2018-03-22T13:00:58.466Z,11.83
2018-03-22T13:03:30.358Z,12.00
2018-03-22T13:06:03.032Z,13.37
2018-03-22T13:08:34.960Z,12.00
2018-03-22T13:11:05.301Z,11.27
2018-03-22T13:13:35.269Z,11.63
2018-03-22T13:16:07.612Z,8.73
2018-03-22T13:18:38.394Z,9.33
2018-03-22T13:21:12.616Z,9.63
2018-03-22T13:23:42.393Z,10.47
2018-03-22T13:26:14.145Z,9.70
2018-03-22T13:28:44.337Z,11.33
2018-03-22T13:31:15.452Z,10.63
2018-03-22T13:33:49.509Z,10.37
2018-03-22T13:36:22.926Z,8.67
2018-03-22T13:38:54.228Z,11.60
2018-03-22T13:41:26.118Z,10.70
2018-03-22T13:43:55.855Z,11.55
2018-03-22T13:46:26.433Z,14.25
2018-03-22T13:48:56.203Z,11.45
2018-03-22T13:51:26.152Z,14.03
2018-03-22T13:53:56.653Z,13.53
2018-03-22T13:56:27.452Z,11.73
2018-03-22T13:58:57.651Z,12.83
2018-03-22T14:01:28.507Z,9.60
2018-03-22T14:03:58.821Z,11.63
2018-03-22T14:06:29.789Z,10.67
2018-03-22T14:08:59.559Z,13.40
2018-03-22T14:11:30.232Z,11.67
2018-03-22T14:14:00.676Z,12.43
2018-03-22T14:16:31.727Z,11.45
2018-03-22T14:19:06.801Z,13.97
2018-03-22T14:21:37.621Z,9.03
2018-03-22T14:24:08.614Z,10.48
2018-03-22T14:26:39.653Z,11.10
2018-03-22T14:29:09.618Z,11.37
2018-03-22T14:31:39.467Z,12.37
2018-03-22T14:34:09.481Z,10.83
2018-03-22T14:36:40.934Z,11.77
2018-03-22T14:42:25.507Z,10.17
2018-03-22T14:44:57.793Z,11.90
2018-03-22T14:47:28.809Z,12.68
2018-03-22T14:50:01.341Z,11.40
2018-03-22T14:52:32.556Z,15.40
2018-03-22T14:55:03.336Z,9.50
2018-03-22T14:57:33.438Z,10.75
2018-03-22T15:00:03.895Z,11.57
2018-03-22T15:02:33.788Z,10.00
2018-03-22T15:05:03.850Z,13.13
2018-03-22T15:07:45.125Z,12.00
2018-03-22T15:10:18.754Z,12.27
2018-03-22T15:12:49.368Z,12.80
2018-03-22T15:15:22.376Z,13.17
2018-03-22T15:17:53.604Z,12.07
2018-03-22T15:20:24.544Z,12.30
2018-03-22T15:22:54.538Z,14.33
2018-03-22T15:25:25.942Z,11.17
2018-03-22T15:27:58.327Z,11.67
2018-03-22T15:30:29.636Z,13.23
2018-03-22T15:33:00.438Z,13.37
2018-03-22T15:35:36.300Z,12.10
2018-03-22T15:38:11.282Z,14.50
2018-03-22T15:40:43.532Z,11.53
2018-03-22T15:43:15.130Z,11.30
2018-03-22T15:45:45.730Z,10.43
2018-03-22T15:48:19.264Z,11.57
2018-03-22T15:50:57.524Z,13.17
2018-03-22T15:53:32.326Z,13.95
2018-03-22T15:56:02.987Z,13.77
2018-03-22T15:58:37.294Z,11.13
2018-03-22T16:01:10.545Z,13.93
2018-03-22T16:03:41.961Z,11.07
2018-03-22T16:06:12.612Z,10.10
2018-03-22T16:08:42.642Z,13.00
2018-03-22T16:11:13.149Z,13.73
2018-03-22T16:13:43.406Z,12.33
2018-03-22T16:16:14.079Z,10.70
2018-03-22T16:18:45.653Z,11.93
2018-03-22T16:21:22.702Z,15.30
2018-03-22T16:23:55.169Z,15.63
2018-03-22T16:26:25.068Z,11.35
2018-03-22T16:28:58.585Z,13.57
2018-03-22T16:31:30.167Z,13.75
2018-03-22T16:34:00.092Z,14.23
2018-03-22T16:36:33.051Z,13.97
2018-03-22T16:39:04.055Z,14.23
2018-03-22T16:41:35.830Z,14.23
2018-03-22T16:44:06.369Z,13.38
2018-03-22T16:46:37.315Z,11.90
2018-03-22T16:49:07.830Z,12.83
2018-03-22T16:51:41.014Z,14.20
2018-03-22T16:54:13.628Z,13.60
2018-03-22T16:56:43.368Z,15.40
2018-03-22T16:59:14.086Z,16.07
2018-03-22T17:01:44.019Z,17.92
2018-03-22T17:04:16.245Z,13.63
2018-03-22T17:06:47.156Z,26.30
2018-03-22T17:09:18.130Z,16.17
2018-03-22T17:11:48.963Z,16.80
2018-03-22T17:14:18.946Z,14.50
2018-03-22T17:16:49.156Z,17.20
2018-03-22T17:19:19.865Z,17.00
2018-03-22T17:21:52.603Z,16.23
2018-03-22T17:24:24.221Z,17.70
2018-03-22T17:26:54.804Z,21.47
2018-03-22T17:29:24.947Z,12.57
2018-03-22T17:31:55.475Z,17.90
2018-03-22T17:34:26.356Z,25.40
2018-03-22T17:37:18.365Z,21.00
2018-03-22T17:39:50.809Z,17.13
2018-03-22T17:42:23.068Z,17.40
2018-03-22T17:44:56.371Z,18.08
2018-03-22T17:47:36.498Z,22.92
2018-03-22T17:50:06.276Z,17.63
2018-03-22T17:52:36.030Z,17.80
2018-03-22T17:55:07.681Z,21.10
2018-03-22T17:57:39.427Z,17.07
2018-03-22T18:00:13.928Z,19.10
2018-03-22T18:02:49.998Z,20.85
2018-03-22T18:05:23.779Z,19.50
2018-03-22T18:08:28.145Z,20.57
2018-03-22T18:11:02.702Z,16.07
2018-03-22T18:13:34.066Z,19.30
2018-03-22T18:16:06.005Z,23.47
2018-03-22T18:18:39.134Z,19.20
2018-03-22T18:21:26.661Z,18.10
2018-03-22T18:24:00.813Z,22.40
2018-03-22T18:26:31.082Z,20.02
2018-03-22T18:29:01.921Z,20.57
2018-03-22T18:31:34.237Z,24.37
2018-03-22T18:34:05.714Z,23.33
2018-03-22T18:36:37.330Z,22.67
2018-03-22T18:39:08.188Z,29.30
2018-03-22T18:41:39.794Z,24.58
2018-03-22T18:44:11.889Z,24.27
2018-03-22T18:46:42.273Z,25.73
2018-03-22T18:49:17.139Z,27.60
2018-03-22T18:51:47.773Z,27.20
2018-03-22T18:54:18.952Z,27.40
2018-03-22T18:56:50.117Z,22.07
2018-03-22T18:59:20.895Z,21.53
2018-03-22T19:01:50.788Z,24.27
2018-03-22T19:04:20.785Z,21.47
2018-03-22T19:06:51.960Z,20.80
2018-03-22T19:09:33.146Z,19.15
2018-03-22T19:12:03.900Z,22.87
2018-03-22T19:14:34.594Z,24.10
2018-03-22T19:17:06.937Z,25.02
2018-03-22T19:19:38.301Z,27.83
2018-03-22T19:22:08.254Z,21.60
2018-03-22T19:24:39.635Z,24.23
2018-03-22T19:27:10.887Z,22.97
2018-03-22T19:29:42.585Z,31.30
2018-03-22T19:32:15.377Z,25.73
2018-03-22T19:34:48.955Z,35.15
2018-03-22T19:37:21.776Z,35.97
2018-03-22T19:39:54.708Z,25.63
2018-03-22T19:42:24.935Z,24.77
2018-03-22T19:44:55.746Z,27.67
2018-03-22T19:47:26.053Z,29.37
2018-03-22T19:49:57.823Z,28.37
2018-03-22T19:52:28.114Z,27.03
2018-03-22T19:55:00.067Z,28.40
2018-03-22T19:57:31.446Z,28.33
2018-03-22T20:00:01.135Z,26.10
2018-03-22T20:02:32.493Z,28.47
2018-03-22T20:05:05.452Z,29.43
2018-03-22T20:07:36.420Z,27.27
2018-03-22T20:10:07.581Z,26.80
2018-03-22T20:12:40.881Z,24.20
2018-03-22T20:15:14.366Z,25.67
2018-03-22T20:17:46.663Z,30.13
2018-03-22T20:20:18.118Z,26.07
2018-03-22T20:22:50.058Z,26.67
2018-03-22T20:25:22.093Z,27.40
2018-03-22T20:27:56.556Z,27.03
2018-03-22T20:30:26.759Z,28.20
2018-03-22T20:33:00.564Z,29.33
2018-03-22T20:35:31.652Z,27.20
2018-03-22T20:38:02.468Z,31.83
2018-03-22T20:40:34.328Z,29.53
2018-03-22T20:43:05.457Z,24.23
2018-03-22T20:45:36.673Z,32.63
2018-03-22T20:48:07.454Z,35.57
2018-03-22T20:50:42.359Z,31.43
2018-03-22T20:53:15.094Z,35.13
2018-03-22T20:55:46.171Z,33.10
2018-03-22T20:58:22.094Z,30.33
2018-03-22T21:00:53.704Z,30.47
2018-03-22T21:03:25.215Z,31.87
2018-03-22T21:05:55.894Z,31.20
2018-03-22T21:08:27.537Z,32.20
2018-03-22T21:10:59.016Z,37.57
2018-03-22T21:13:31.761Z,32.90
2018-03-22T21:16:03.842Z,32.83
2018-03-22T21:18:34.217Z,31.70
2018-03-22T21:21:18.014Z,35.20
2018-03-22T21:23:50.322Z,31.53
2018-03-22T21:26:22.217Z,36.57
2018-03-22T21:28:54.937Z,34.73
2018-03-22T21:31:24.628Z,31.47
2018-03-22T21:33:55.204Z,30.27
2018-03-22T21:36:26.972Z,28.35
2018-03-22T21:38:57.009Z,30.37
2018-03-22T21:41:28.643Z,29.77
2018-03-22T21:44:16.778Z,31.57
2018-03-22T21:46:47.780Z,27.20
2018-03-22T21:49:19.278Z,31.67
2018-03-22T21:54:56.584Z,34.23
2018-03-22T21:57:26.815Z,29.90
2018-03-22T21:59:58.872Z,30.23
2018-03-22T22:02:28.649Z,31.70
2018-03-22T22:05:00.640Z,29.90
2018-03-22T22:07:33.608Z,32.10
2018-03-22T22:10:05.136Z,29.07
2018-03-22T22:12:42.568Z,28.37
2018-03-22T22:15:15.402Z,31.95
2018-03-22T22:17:47.620Z,25.30
2018-03-22T22:20:18.075Z,29.87
2018-03-22T22:22:48.383Z,34.80
2018-03-22T22:25:18.739Z,29.43
2018-03-22T22:27:49.687Z,27.55
2018-03-22T22:30:20.962Z,28.40
2018-03-22T22:35:49.814Z,29.30
2018-03-22T22:38:20.338Z,25.14
2018-03-22T22:41:12.603Z,30.43
2018-03-22T22:43:53.847Z,28.47
2018-03-22T22:46:24.673Z,35.60
2018-03-22T22:48:54.783Z,31.20
2018-03-22T22:51:26.432Z,28.37
2018-03-22T22:53:57.450Z,28.00
2018-03-22T22:56:30.245Z,34.65
2018-03-22T22:59:01.748Z,27.07
2018-03-22T23:01:32.051Z,28.73
2018-03-22T23:04:02.775Z,25.23
2018-03-22T23:06:33.867Z,27.27
2018-03-22T23:09:06.110Z,26.93
2018-03-22T23:11:46.507Z,25.77
2018-03-22T23:14:23.653Z,23.38
2018-03-22T23:16:54.773Z,23.47
2018-03-22T23:19:24.990Z,30.07
2018-03-22T23:21:55.760Z,24.50
2018-03-22T23:24:28.293Z,22.77
2018-03-22T23:27:02.803Z,24.27
2018-03-22T23:29:34.005Z,21.00
2018-03-22T23:32:04.612Z,25.90
2018-03-22T23:34:35.386Z,25.93
2018-03-22T23:37:06.670Z,26.30
2018-03-22T23:39:41.789Z,26.17
2018-03-22T23:42:23.628Z,27.80
2018-03-22T23:44:54.845Z,28.90
2018-03-22T23:47:26.931Z,25.03
2018-03-22T23:49:56.908Z,22.47
2018-03-22T23:52:32.038Z,21.83
2018-03-22T23:55:04.210Z,23.33
2018-03-22T23:57:35.009Z,23.20
